Time;durP1;ratioP1;P1;durP2;ratioP2;P2;SDS_P1;SDS_P2;PMS_P1;PMS_P2;Temp;Humidity;BMP_temperature;BMP_pressure;BME280_temperature;BME280_humidity;BME280_pressure;Samples;Min_cycle;Max_cycle;Signal;HPM_P1;HPM_P2
2023/01/29 00:01:11;;;;;;;;;51.00;41.00;;;;;-146.39;100.00;62182.44;6281709;20;2842025;-59
2023/01/29 00:03:40;;;;;;;;;49.00;40.33;;;;;-146.39;100.00;62182.44;6276201;20;2863965;-59
2023/01/29 00:06:10;;;;;;;;;43.50;32.50;;;;;-146.39;100.00;62182.44;6308778;20;2868073;-59
2023/01/29 00:08:39;;;;;;;;;44.67;37.33;;;;;-146.39;100.00;62182.44;6284616;20;2873334;-59
2023/01/29 00:11:10;;;;;;;;;48.33;36.00;;;;;-146.39;100.00;62182.44;6307643;20;2879649;-59
2023/01/29 00:13:39;;;;;;;;;36.33;33.67;;;;;-146.39;100.00;62182.44;6309547;20;2860809;-59
2023/01/29 00:16:09;;;;;;;;;42.67;34.67;;;;;-146.39;100.00;62182.44;6314418;20;3620192;-59
2023/01/29 00:18:40;;;;;;;;;49.67;31.00;;;;;-146.39;100.00;62182.44;6309510;20;2875385;-59
2023/01/29 00:21:17;;;;;;;;;49.00;38.33;;;;;-146.39;100.00;62182.44;6308199;20;3622148;-59
2023/01/29 00:23:48;;;;;;;;;42.67;37.33;;;;;-146.39;100.00;62182.44;6311987;20;3607532;-59
2023/01/29 00:26:18;;;;;;;;;44.33;38.33;;;;;-146.39;100.00;62182.44;6308571;20;2873275;-59
2023/01/29 00:28:47;;;;;;;;;47.33;37.67;;;;;-146.39;100.00;62182.44;6311792;20;3631878;-59
2023/01/29 00:31:22;;;;;;;;;47.33;40.00;;;;;-146.39;100.00;62182.44;6312115;20;2846280;-59
2023/01/29 00:33:52;;;;;;;;;48.00;36.00;;;;;-146.39;100.00;62182.44;6313053;20;3629455;-59
2023/01/29 00:36:24;;;;;;;;;47.00;38.67;;;;;-146.39;100.00;62182.44;6311251;20;2860884;-59
2023/01/29 00:39:02;;;;;;;;;42.33;36.00;;;;;-146.39;100.00;62182.44;6312812;20;2871418;-60
2023/01/29 00:47:29;;;;;;;;;58.00;44.00;;;;;-146.39;100.00;62182.44;6309807;20;2858733;-59
2023/01/29 00:49:57;;;;;;;;;60.67;46.00;;;;;-146.39;100.00;62182.44;6280930;20;2881728;-59
2023/01/29 00:52:27;;;;;;;;;64.67;47.33;;;;;-146.39;100.00;62182.44;6312523;20;2876455;-59
2023/01/29 00:54:59;;;;;;;;;55.00;44.00;;;;;-146.39;100.00;62182.44;6307748;20;2858645;-59
2023/01/29 00:57:32;;;;;;;;;64.00;46.67;;;;;-146.39;100.00;62182.44;6280524;20;2885922;-59
2023/01/29 01:00:08;;;;;;;;;64.67;45.67;;;;;-146.39;100.00;62182.44;6314602;20;3637803;-59
2023/01/29 01:05:25;;;;;;;;;60.50;47.50;;;;;-146.39;100.00;62182.44;6307098;20;2855590;-59
2023/01/29 01:07:57;;;;;;;;;67.25;50.50;;;;;-146.39;100.00;62182.44;6280133;20;3632943;-59
2023/01/29 01:10:32;;;;;;;;;70.67;51.00;;;;;-146.39;100.00;62182.44;6311101;20;2884769;-59
2023/01/29 01:13:05;;;;;;;;;66.67;47.67;;;;;-146.39;100.00;62182.44;6311357;20;2880634;-59
2023/01/29 01:15:40;;;;;;;;;74.00;53.00;;;;;-146.39;100.00;62182.44;6308059;20;3637822;-58
2023/01/29 01:18:09;;;;;;;;;70.33;51.00;;;;;-146.39;100.00;62182.44;6306212;20;3639830;-59
2023/01/29 01:20:39;;;;;;;;;73.33;56.00;;;;;-146.39;100.00;62182.44;6308384;20;3637759;-59
2023/01/29 01:23:08;;;;;;;;;72.00;53.67;;;;;-146.39;100.00;62182.44;6307818;20;3643017;-59
2023/01/29 01:25:38;;;;;;;;;73.00;55.33;;;;;-146.39;100.00;62182.44;6312810;20;2885822;-59
2023/01/29 01:28:09;;;;;;;;;71.00;51.67;;;;;-146.39;100.00;62182.44;6310225;20;3642960;-59
2023/01/29 01:30:39;;;;;;;;;71.00;53.67;;;;;-146.39;100.00;62182.44;6304095;20;3639853;-59
2023/01/29 01:33:08;;;;;;;;;71.33;54.33;;;;;-146.39;100.00;62182.44;6310828;20;2884099;-59
2023/01/29 01:35:39;;;;;;;;;72.33;54.67;;;;;-146.39;100.00;62182.44;6309438;20;3641899;-59
2023/01/29 01:38:09;;;;;;;;;70.33;54.33;;;;;-146.39;100.00;62182.44;6306526;20;3650362;-59
2023/01/29 01:40:45;;;;;;;;;68.00;53.00;;;;;-146.39;100.00;62182.44;6308216;20;3637783;-59
2023/01/29 01:43:14;;;;;;;;;76.00;56.67;;;;;-146.39;100.00;62182.44;6312121;20;3642985;-59
2023/01/29 01:45:45;;;;;;;;;87.00;61.00;;;;;-146.39;100.00;62182.44;6309738;20;3640908;-59
2023/01/29 01:48:24;;;;;;;;;80.00;58.00;;;;;-146.39;100.00;62182.44;6308171;20;3648207;-59
2023/01/29 01:51:03;;;;;;;;;79.67;59.00;;;;;-146.39;100.00;62182.44;6305870;20;3656661;-59
2023/01/29 01:53:42;;;;;;;;;81.33;60.67;;;;;-146.39;100.00;62182.44;6306937;20;3647178;-59
2023/01/29 01:56:37;;;;;;;;;75.33;54.67;;;;;-146.39;100.00;62182.44;6308147;20;3645118;-59
2023/01/29 01:59:13;;;;;;;;;72.33;54.33;;;;;-146.39;100.00;62182.44;6303077;20;3633611;-59
2023/01/29 02:01:49;;;;;;;;;77.67;59.00;;;;;-146.39;100.00;62182.44;6305029;20;3638831;-60
2023/01/29 02:10:15;;;;;;;;;75.67;56.67;;;;;-146.39;100.00;62182.44;6305516;20;3628543;-59
2023/01/29 02:12:46;;;;;;;;;75.00;55.67;;;;;-146.39;100.00;62182.44;6308861;20;2894159;-59
2023/01/29 02:15:15;;;;;;;;;75.00;53.33;;;;;-146.39;100.00;62182.44;6307394;20;3639881;-59
2023/01/29 02:17:47;;;;;;;;;70.00;51.50;;;;;-146.39;100.00;62182.44;6307547;20;2875367;-59
2023/01/29 02:20:28;;;;;;;;;74.67;57.00;;;;;-146.39;100.00;62182.44;6275537;20;3629430;-59
2023/01/29 02:23:46;;;;;;;;;76.33;57.00;;;;;-146.39;100.00;62182.44;6305395;20;2879543;-59
2023/01/29 02:26:45;;;;;;;;;79.33;59.67;;;;;-146.39;100.00;62182.44;6308094;20;2872190;-59
2023/01/29 02:29:34;;;;;;;;;74.00;57.67;;;;;-146.39;100.00;62182.44;6308108;20;3636841;-59
2023/01/29 02:32:57;;;;;;;;;75.33;56.33;;;;;-146.39;100.00;62182.44;6310482;20;3647175;-59
2023/01/29 02:35:53;;;;;;;;;75.00;56.67;;;;;-146.39;100.00;62182.44;6316322;20;3636858;-59
2023/01/29 02:39:00;;;;;;;;;73.50;58.00;;;;;-146.39;100.00;62182.44;6312909;20;2870149;-59
2023/01/29 02:42:15;;;;;;;;;76.67;56.67;;;;;-146.39;100.00;62182.44;6285779;20;3644205;-59
2023/01/29 02:45:05;;;;;;;;;76.67;57.67;;;;;-146.39;100.00;62182.44;6315060;20;2869100;-59
2023/01/29 02:48:01;;;;;;;;;79.33;59.33;;;;;-146.39;100.00;62182.44;6314390;20;3642081;-59
2023/01/29 02:51:20;;;;;;;;;82.67;60.67;;;;;-146.39;100.00;62182.44;6314331;20;2886822;-59
2023/01/29 02:54:24;;;;;;;;;84.33;59.33;;;;;-146.39;100.00;62182.44;6314866;20;3662759;-59
2023/01/29 02:57:17;;;;;;;;;77.33;57.00;;;;;-146.39;100.00;62182.44;6314434;20;3638945;-59
2023/01/29 03:00:13;;;;;;;;;79.00;60.00;;;;;-146.39;100.00;62182.44;6308301;20;2880647;-59
2023/01/29 03:03:07;;;;;;;;;79.00;59.00;;;;;-146.39;100.00;62182.44;6315529;20;2889942;-59
2023/01/29 03:06:19;;;;;;;;;64.50;44.50;;;;;-146.39;100.00;62182.44;6313305;20;2878413;-59
2023/01/29 03:09:15;;;;;;;;;86.33;62.67;;;;;-146.39;100.00;62182.44;6275949;20;3668038;-59
2023/01/29 03:11:53;;;;;;;;;85.33;61.67;;;;;-146.39;100.00;62182.44;6310164;20;3658654;-59
2023/01/29 03:18:00;;;;;;;;;75.33;57.67;;;;;-146.39;100.00;62182.44;6312232;20;3638792;-59
2023/01/29 03:20:39;;;;;;;;;69.00;52.33;;;;;-146.39;100.00;62182.44;6309844;20;2877383;-59
2023/01/29 03:23:25;;;;;;;;;75.00;58.00;;;;;-146.39;100.00;62182.44;6310613;20;3648235;-59
2023/01/29 03:34:33;;;;;;;;;56.50;47.00;;;;;-146.39;100.00;62182.44;6309131;20;2852398;-60
2023/01/29 03:37:47;;;;;;;;;78.00;56.00;;;;;-146.39;100.00;62182.44;6281472;20;3639877;-60
2023/01/29 03:40:17;;;;;;;;;73.67;57.00;;;;;-146.39;100.00;62182.44;6309668;20;2883838;-59
2023/01/29 03:43:09;;;;;;;;;82.33;58.33;;;;;-146.39;100.00;62182.44;6308866;20;3643039;-59
2023/01/29 03:46:17;;;;;;;;;81.67;61.33;;;;;-146.39;100.00;62182.44;6312969;20;3648255;-60
2023/01/29 03:49:07;;;;;;;;;79.33;56.67;;;;;-146.39;100.00;62182.44;6309909;20;3638958;-59
2023/01/29 03:52:33;;;;;;;;;71.00;59.00;;;;;-146.39;100.00;62182.44;6309399;20;2845086;-60
2023/01/29 03:55:43;;;;;;;;;76.33;57.67;;;;;-146.39;100.00;62182.44;6280458;20;2887917;-59
2023/01/29 03:59:02;;;;;;;;;76.00;55.33;;;;;-146.39;100.00;62182.44;6310996;20;2883963;-60
2023/01/29 04:02:07;;;;;;;;;78.00;59.67;;;;;-146.39;100.00;62182.44;6313180;20;3638830;-59
2023/01/29 04:04:41;;;;;;;;;69.00;52.67;;;;;-146.39;100.00;62182.44;6309907;20;2882690;-59
2023/01/29 04:07:23;;;;;;;;;77.00;57.00;;;;;-146.39;100.00;62182.44;6302453;20;3655484;-59
2023/01/29 04:10:10;;;;;;;;;75.33;58.33;;;;;-146.39;100.00;62182.44;6309378;20;3624280;-59
2023/01/29 04:12:58;;;;;;;;;73.33;54.00;;;;;-146.39;100.00;62182.44;6308744;20;3642957;-59
2023/01/29 04:15:34;;;;;;;;;80.33;59.67;;;;;-146.39;100.00;62182.44;6309507;20;3642960;-60
2023/01/29 04:18:04;;;;;;;;;79.67;60.33;;;;;-146.39;100.00;62182.44;6310460;20;3645158;-59
2023/01/29 04:20:35;;;;;;;;;76.33;58.33;;;;;-146.39;100.00;62182.44;6308573;20;2871241;-59
2023/01/29 04:23:24;;;;;;;;;70.33;54.67;;;;;-146.39;100.00;62182.44;6313982;20;2881634;-60
2023/01/29 04:26:24;;;;;;;;;75.67;58.00;;;;;-146.39;100.00;62182.44;6315366;20;2875420;-60
2023/01/29 04:29:34;;;;;;;;;78.00;57.00;;;;;-146.39;100.00;62182.44;6305625;20;2885998;-60
2023/01/29 04:32:31;;;;;;;;;79.00;57.33;;;;;-146.39;100.00;62182.44;6309463;20;3646277;-59
2023/01/29 04:35:19;;;;;;;;;81.50;58.50;;;;;-146.39;100.00;62182.44;6309852;20;3597198;-60
2023/01/29 04:37:57;;;;;;;;;77.33;61.00;;;;;-146.39;100.00;62182.44;6312226;20;2868080;-59
2023/01/29 04:40:57;;;;;;;;;82.67;61.33;;;;;-146.39;100.00;62182.44;6309418;20;3633597;-58
2023/01/29 04:44:06;;;;;;;;;84.67;64.00;;;;;-146.39;100.00;62182.44;6307081;20;3659734;-59
2023/01/29 04:46:59;;;;;;;;;81.67;61.67;;;;;-146.39;100.00;62182.44;6310395;20;2889967;-59
2023/01/29 04:49:40;;;;;;;;;90.67;65.33;;;;;-146.39;100.00;62182.44;6313401;20;3651314;-59
2023/01/29 04:52:50;;;;;;;;;82.33;63.00;;;;;-146.39;100.00;62182.44;6311888;20;3640889;-59
2023/01/29 04:55:46;;;;;;;;;85.00;65.00;;;;;-146.39;100.00;62182.44;6307066;20;2891438;-59
2023/01/29 04:58:38;;;;;;;;;82.33;62.00;;;;;-146.39;100.00;62182.44;6311572;20;3655510;-59
2023/01/29 05:01:13;;;;;;;;;78.67;61.00;;;;;-146.39;100.00;62182.44;6308651;20;2874254;-59
2023/01/29 05:03:50;;;;;;;;;81.00;63.00;;;;;-146.39;100.00;62182.44;6312248;20;3620162;-59
2023/01/29 05:06:20;;;;;;;;;88.33;62.33;;;;;-146.39;100.00;62182.44;6308712;20;3658604;-59
2023/01/29 05:08:51;;;;;;;;;88.33;67.33;;;;;-146.39;100.00;62182.44;6306121;20;3643264;-57
2023/01/29 05:11:23;;;;;;;;;86.00;64.33;;;;;-146.39;100.00;62182.44;6302690;20;3645035;-59
2023/01/29 05:13:53;;;;;;;;;91.67;64.00;;;;;-146.39;100.00;62182.44;6310293;20;3655968;-59
2023/01/29 05:16:29;;;;;;;;;77.00;59.50;;;;;-146.39;100.00;62182.44;6308476;20;2883677;-59
2023/01/29 05:18:58;;;;;;;;;83.00;64.33;;;;;-146.39;100.00;62182.44;6273827;20;3630472;-58
2023/01/29 05:21:27;;;;;;;;;66.00;55.00;;;;;-146.39;100.00;62182.44;6311274;20;2858714;-59
2023/01/29 05:24:16;;;;;;;;;94.33;70.00;;;;;-146.39;100.00;62182.44;6271513;20;3645077;-58
2023/01/29 05:29:45;;;;;;;;;88.00;65.00;;;;;-146.39;100.00;62182.44;6307325;20;3648155;-59
2023/01/29 05:32:15;;;;;;;;;85.00;64.67;;;;;-146.39;100.00;62182.44;6311001;20;3633736;-59
2023/01/29 05:34:45;;;;;;;;;78.33;59.33;;;;;-146.39;100.00;62182.44;6311697;20;2885757;-59
2023/01/29 05:37:15;;;;;;;;;91.33;65.67;;;;;-146.39;100.00;62182.44;6313715;20;3645105;-59
2023/01/29 05:39:44;;;;;;;;;85.00;60.00;;;;;-146.39;100.00;62182.44;6309528;20;3664860;-59
2023/01/29 05:42:14;;;;;;;;;88.67;61.33;;;;;-146.39;100.00;62182.44;6307592;20;3651348;-59
2023/01/29 05:44:43;;;;;;;;;90.67;67.00;;;;;-146.39;100.00;62182.44;6313228;20;3647176;-59
2023/01/29 05:47:13;;;;;;;;;89.33;64.00;;;;;-146.39;100.00;62182.44;6311088;20;3658732;-59
2023/01/29 05:49:43;;;;;;;;;86.67;60.67;;;;;-146.39;100.00;62182.44;6306733;20;3659700;-59
2023/01/29 05:52:12;;;;;;;;;94.00;70.00;;;;;-146.39;100.00;62182.44;6310810;20;3659796;-59
2023/01/29 05:54:42;;;;;;;;;84.33;61.00;;;;;-146.39;100.00;62182.44;6310117;20;3666937;-58
2023/01/29 05:57:11;;;;;;;;;89.33;66.67;;;;;-146.39;100.00;62182.44;6279456;20;3651308;-59
2023/01/29 05:59:41;;;;;;;;;84.67;63.33;;;;;-146.39;100.00;62182.44;6307088;20;3651385;-59
2023/01/29 06:02:10;;;;;;;;;90.67;64.33;;;;;-146.39;100.00;62182.44;6306281;20;3636890;-59
2023/01/29 06:04:40;;;;;;;;;79.33;59.00;;;;;-146.39;100.00;62182.44;6307484;20;3642963;-59
2023/01/29 06:07:10;;;;;;;;;78.33;60.00;;;;;-146.39;100.00;62182.44;6313549;20;3638887;-59
2023/01/29 06:09:39;;;;;;;;;84.33;62.33;;;;;-146.39;100.00;62182.44;6315274;20;3652354;-59
2023/01/29 06:12:09;;;;;;;;;84.67;64.00;;;;;-146.39;100.00;62182.44;6317578;20;3647114;-59
2023/01/29 06:14:38;;;;;;;;;77.33;56.00;;;;;-146.39;100.00;62182.44;6314302;20;2890112;-59
2023/01/29 06:17:08;;;;;;;;;72.00;57.00;;;;;-146.39;100.00;62182.44;6316421;20;2877488;-58
2023/01/29 06:19:37;;;;;;;;;67.50;50.50;;;;;-146.39;100.00;62182.44;6311944;20;2870101;-59
2023/01/29 06:22:06;;;;;;;;;73.33;47.00;;;;;-146.39;100.00;62182.44;6286544;20;2889949;-59
2023/01/29 06:24:36;;;;;;;;;61.50;48.50;;;;;-146.39;100.00;62182.44;6316659;20;2876416;-59
2023/01/29 06:27:05;;;;;;;;;57.00;47.00;;;;;-146.39;100.00;62182.44;6284963;20;2864882;-58
2023/01/29 06:29:35;;;;;;;;;85.33;61.00;;;;;-146.39;100.00;62182.44;6280907;20;3666944;-59
2023/01/29 06:32:05;;;;;;;;;69.33;53.33;;;;;-146.39;100.00;62182.44;6318024;20;2887822;-59
2023/01/29 06:34:35;;;;;;;;;66.00;52.33;;;;;-146.39;100.00;62182.44;6317736;20;2871180;-60
2023/01/29 06:37:04;;;;;;;;;74.33;57.00;;;;;-146.39;100.00;62182.44;6319527;20;3632598;-59
2023/01/29 06:39:34;;;;;;;;;77.00;59.67;;;;;-146.39;100.00;62182.44;6315190;20;2885877;-60
2023/01/29 06:42:04;;;;;;;;;72.67;55.00;;;;;-146.39;100.00;62182.44;6318832;20;3645210;-59
2023/01/29 06:44:33;;;;;;;;;81.33;62.00;;;;;-146.39;100.00;62182.44;6312675;20;3633107;-60
2023/01/29 06:47:03;;;;;;;;;87.00;63.00;;;;;-146.39;100.00;62182.44;6316195;20;3651347;-60
2023/01/29 06:49:32;;;;;;;;;79.00;60.33;;;;;-146.39;100.00;62182.44;6313468;20;2884743;-60
2023/01/29 06:52:02;;;;;;;;;79.33;59.00;;;;;-146.39;100.00;62182.44;6317304;20;3651375;-60
2023/01/29 06:54:32;;;;;;;;;76.67;55.67;;;;;-146.39;100.00;62182.44;6317784;20;3636726;-59
2023/01/29 06:57:01;;;;;;;;;76.67;59.00;;;;;-146.39;100.00;62182.44;6316820;20;3638838;-60
2023/01/29 06:59:31;;;;;;;;;79.00;59.00;;;;;-146.39;100.00;62182.44;6315929;20;3642985;-59
2023/01/29 07:02:02;;;;;;;;;93.00;68.00;;;;;-146.39;100.00;62182.44;6317627;20;3654444;-60
2023/01/29 07:04:32;;;;;;;;;97.33;70.67;;;;;-146.39;100.00;62182.44;6315963;20;3682619;-60
2023/01/29 07:07:01;;;;;;;;;90.33;66.00;;;;;-146.39;100.00;62182.44;6282614;20;3645053;-60
2023/01/29 07:09:31;;;;;;;;;81.00;55.00;;;;;-146.39;100.00;62182.44;6315745;20;3650666;-60
2023/01/29 07:12:01;;;;;;;;;89.00;65.67;;;;;-146.39;100.00;62182.44;6315085;20;3656494;-60
2023/01/29 07:14:30;;;;;;;;;79.33;59.00;;;;;-146.39;100.00;62182.44;6317265;20;3652433;-60
2023/01/29 07:17:00;;;;;;;;;78.67;56.33;;;;;-146.39;100.00;62182.44;6314516;20;3643010;-60
2023/01/29 07:19:29;;;;;;;;;70.33;51.67;;;;;-146.39;100.00;62182.44;6306690;20;2876465;-60
2023/01/29 07:22:01;;;;;;;;;72.00;54.00;;;;;-146.39;100.00;62182.44;6316748;20;3634642;-60
2023/01/29 07:24:31;;;;;;;;;81.33;60.33;;;;;-146.39;100.00;62182.44;6315597;20;3650303;-60
2023/01/29 07:27:00;;;;;;;;;79.00;61.33;;;;;-146.39;100.00;62182.44;6310911;20;3637616;-60
2023/01/29 07:29:30;;;;;;;;;77.00;59.67;;;;;-146.39;100.00;62182.44;6312068;20;2889042;-60
2023/01/29 07:31:59;;;;;;;;;76.00;59.67;;;;;-146.39;100.00;62182.44;6315932;20;2887869;-60
2023/01/29 07:34:29;;;;;;;;;71.33;55.67;;;;;-146.39;100.00;62182.44;6316085;20;2872233;-60
2023/01/29 07:36:59;;;;;;;;;79.00;61.67;;;;;-146.39;100.00;62182.44;6315236;20;3639899;-60
2023/01/29 07:39:29;;;;;;;;;79.33;56.00;;;;;-146.39;100.00;62182.44;6311418;20;3656504;-60
2023/01/29 07:41:58;;;;;;;;;70.33;54.33;;;;;-146.39;100.00;62182.44;6313039;20;2885708;-60
2023/01/29 07:44:28;;;;;;;;;70.67;52.33;;;;;-146.39;100.00;62182.44;6314441;20;3635690;-60
2023/01/29 07:46:57;;;;;;;;;73.67;57.33;;;;;-146.39;100.00;62182.44;6313984;20;2884789;-60
2023/01/29 07:49:27;;;;;;;;;73.00;53.33;;;;;-146.39;100.00;62182.44;6312333;20;2888955;-60
2023/01/29 07:51:56;;;;;;;;;68.67;53.33;;;;;-146.39;100.00;62182.44;6316563;20;3635067;-60
2023/01/29 07:54:26;;;;;;;;;72.33;56.33;;;;;-146.39;100.00;62182.44;6313721;20;3624249;-60
2023/01/29 07:56:55;;;;;;;;;69.00;51.67;;;;;-146.39;100.00;62182.44;6315147;20;3636746;-60
2023/01/29 07:59:25;;;;;;;;;69.67;50.00;;;;;-146.39;100.00;62182.44;6313912;20;3641979;-60
2023/01/29 08:01:54;;;;;;;;;71.67;55.33;;;;;-146.39;100.00;62182.44;6315514;20;2878716;-60
2023/01/29 08:04:24;;;;;;;;;68.33;52.00;;;;;-146.39;100.00;62182.44;6314151;20;2882672;-60
2023/01/29 08:06:54;;;;;;;;;69.33;53.67;;;;;-146.39;100.00;62182.44;6315488;20;3641977;-60
2023/01/29 08:09:23;;;;;;;;;69.33;55.00;;;;;-146.39;100.00;62182.44;6314750;20;2879520;-60
2023/01/29 08:11:53;;;;;;;;;79.33;57.33;;;;;-146.39;100.00;62182.44;6315649;20;3639857;-60
2023/01/29 08:14:23;;;;;;;;;84.67;58.00;;;;;-146.39;100.00;62182.44;6312268;20;3669026;-60
2023/01/29 08:16:53;;;;;;;;;81.00;58.00;;;;;-146.39;100.00;62182.44;6315690;20;3657568;-60
2023/01/29 08:19:23;;;;;;;;;76.67;57.67;;;;;-146.39;100.00;62182.44;6313377;20;3651306;-60
2023/01/29 08:21:52;;;;;;;;;80.00;59.00;;;;;-146.39;100.00;62182.44;6281011;20;3644005;-60
2023/01/29 08:24:22;;;;;;;;;78.00;57.00;;;;;-146.39;100.00;62182.44;6314656;20;3649228;-60
2023/01/29 08:27:04;;;;;;;;;81.00;58.67;;;;;-146.39;100.00;62182.44;6313145;20;3645186;-60
2023/01/29 08:29:34;;;;;;;;;69.67;54.67;;;;;-146.39;100.00;62182.44;6313360;20;2870139;-59
2023/01/29 08:32:04;;;;;;;;;90.67;64.33;;;;;-146.39;100.00;62182.44;6311123;20;3654417;-61
2023/01/29 08:34:33;;;;;;;;;66.00;54.00;;;;;-146.39;100.00;62182.44;6279412;20;2861105;-60
2023/01/29 08:37:02;;;;;;;;;73.00;54.33;;;;;-146.39;100.00;62182.44;6264293;20;3639839;-60
2023/01/29 08:39:32;;;;;;;;;84.33;60.33;;;;;-146.39;100.00;62182.44;6303613;20;3638820;-60
2023/01/29 08:42:03;;;;;;;;;82.33;61.00;;;;;-146.39;100.00;62182.44;6311161;20;3656495;-60
2023/01/29 08:44:32;;;;;;;;;89.67;64.67;;;;;-146.39;100.00;62182.44;6312849;20;3638808;-61
2023/01/29 08:47:02;;;;;;;;;90.33;68.00;;;;;-146.39;100.00;62182.44;6315686;20;3651292;-60
2023/01/29 08:49:31;;;;;;;;;81.67;62.00;;;;;-146.39;100.00;62182.44;6312360;20;3648185;-60
2023/01/29 08:52:01;;;;;;;;;69.00;53.67;;;;;-146.39;100.00;62182.44;6309683;20;2890095;-60
2023/01/29 08:54:32;;;;;;;;;73.67;54.67;;;;;-146.39;100.00;62182.44;6309639;20;3638834;-60
2023/01/29 08:57:01;;;;;;;;;77.00;58.00;;;;;-146.39;100.00;62182.44;6313296;20;3637751;-60
2023/01/29 08:59:31;;;;;;;;;66.33;48.00;;;;;-146.39;100.00;62182.44;6310173;20;2878509;-60
2023/01/29 09:02:00;;;;;;;;;68.00;52.67;;;;;-146.39;100.00;62182.44;6312724;20;2877360;-60
2023/01/29 09:04:29;;;;;;;;;61.00;42.00;;;;;-146.39;100.00;62182.44;6310590;20;2852536;-60
2023/01/29 09:06:58;;;;;;;;;63.33;49.00;;;;;-146.39;100.00;62182.44;6283763;20;2876447;-60
2023/01/29 09:09:28;;;;;;;;;77.33;56.00;;;;;-146.39;100.00;62182.44;6314300;20;3643127;-60
2023/01/29 09:11:57;;;;;;;;;71.33;53.00;;;;;-146.39;100.00;62182.44;6314536;20;2883639;-60
2023/01/29 09:14:27;;;;;;;;;82.33;54.00;;;;;-146.39;100.00;62182.44;6307345;20;3649246;-61
2023/01/29 09:16:57;;;;;;;;;78.33;59.67;;;;;-146.39;100.00;62182.44;6279129;20;3639979;-59
2023/01/29 09:19:27;;;;;;;;;71.33;54.33;;;;;-146.39;100.00;62182.44;6314276;20;3610726;-60
2023/01/29 09:21:56;;;;;;;;;93.67;71.00;;;;;-146.39;100.00;62182.44;6312953;20;3656530;-60
2023/01/29 09:24:26;;;;;;;;;89.33;63.00;;;;;-146.39;100.00;62182.44;6278849;20;3640895;-60
2023/01/29 09:26:55;;;;;;;;;93.33;65.00;;;;;-146.39;100.00;62182.44;6313479;20;3661724;-60
2023/01/29 09:29:24;;;;;;;;;65.50;50.00;;;;;-146.39;100.00;62182.44;6313114;20;2869160;-60
2023/01/29 09:31:53;;;;;;;;;82.00;58.67;;;;;-146.39;100.00;62182.44;6278229;20;3651339;-56
2023/01/29 09:34:23;;;;;;;;;66.33;51.00;;;;;-146.39;100.00;62182.44;6312884;20;3634623;-59
2023/01/29 09:36:53;;;;;;;;;73.67;52.00;;;;;-146.39;100.00;62182.44;6314719;20;3636754;-60
2023/01/29 09:39:22;;;;;;;;;66.67;50.00;;;;;-146.39;100.00;62182.44;6310302;20;3629837;-59
2023/01/29 09:42:15;;;;;;;;;70.33;52.00;;;;;-146.39;100.00;62182.44;6309280;20;3636767;-60
2023/01/29 09:45:02;;;;;;;;;68.50;50.00;;;;;-146.39;100.00;62182.44;6306266;20;2880517;-60
2023/01/29 09:47:35;;;;;;;;;78.33;57.67;;;;;-146.39;100.00;62182.44;6282438;20;3650274;-59
2023/01/29 09:50:30;;;;;;;;;95.67;72.33;;;;;-146.39;100.00;62182.44;6311919;20;3673197;-59
2023/01/29 09:53:32;;;;;;;;;71.33;52.00;;;;;-146.39;100.00;62182.44;6279920;20;3650742;-60
2023/01/29 09:56:11;;;;;;;;;68.67;51.33;;;;;-146.39;100.00;62182.44;6311172;20;3631517;-59
2023/01/29 09:58:42;;;;;;;;;65.00;53.00;;;;;-146.39;100.00;62182.44;6308503;20;2863954;-60
2023/01/29 10:02:03;;;;;;;;;74.67;53.67;;;;;-146.39;100.00;62182.44;6272973;20;2894133;-60
2023/01/29 10:05:15;;;;;;;;;63.00;52.00;;;;;-146.39;100.00;62182.44;6310014;20;2821149;-59
2023/01/29 10:08:23;;;;;;;;;79.33;56.67;;;;;-146.39;100.00;62182.44;6279879;20;2899292;-59
2023/01/29 10:11:13;;;;;;;;;39.00;36.50;;;;;-146.39;100.00;62182.44;6313179;20;2818016;-59
2023/01/29 10:14:18;;;;;;;;;66.50;51.50;;;;;-146.39;100.00;62182.44;6278881;20;2880494;-60
2023/01/29 10:17:18;;;;;;;;;68.00;49.33;;;;;-146.39;100.00;62182.44;6279835;20;3631557;-59
2023/01/29 10:20:31;;;;;;;;;70.33;50.00;;;;;-146.39;100.00;62182.44;6310300;20;3641953;-59
2023/01/29 10:23:24;;;;;;;;;70.33;54.33;;;;;-146.39;100.00;62182.44;6311309;20;3631501;-59
2023/01/29 10:25:55;;;;;;;;;69.00;52.67;;;;;-146.39;100.00;62182.44;6303790;20;3649337;-60
2023/01/29 10:28:46;;;;;;;;;71.67;53.67;;;;;-146.39;100.00;62182.44;6305788;20;3637826;-60
2023/01/29 10:31:31;;;;;;;;;69.00;52.67;;;;;-146.39;100.00;62182.44;6308940;20;3647155;-59
2023/01/29 10:34:35;;;;;;;;;62.00;48.67;;;;;-146.39;100.00;62182.44;6311496;20;2874312;-60
2023/01/29 10:37:41;;;;;;;;;66.33;49.00;;;;;-146.39;100.00;62182.44;6309083;20;2873296;-60
2023/01/29 10:40:21;;;;;;;;;65.33;47.67;;;;;-146.39;100.00;62182.44;6304913;20;3620083;-59
2023/01/29 10:43:08;;;;;;;;;72.33;54.00;;;;;-146.39;100.00;62182.44;6310881;20;3630455;-60
2023/01/29 10:46:54;;;;;;;;;84.67;60.33;;;;;-146.39;100.00;62182.44;6306608;20;3644195;-60
2023/01/29 10:50:08;;;;;;;;;78.67;61.67;;;;;-146.39;100.00;62182.44;6309149;20;3635661;-59
2023/01/29 10:53:56;;;;;;;;;63.50;47.00;;;;;-146.39;100.00;62182.44;6307041;20;2874435;-59
2023/01/29 10:57:06;;;;;;;;;84.00;60.67;;;;;-146.39;100.00;62182.44;6281782;20;3645091;-60
2023/01/29 11:00:21;;;;;;;;;74.67;58.00;;;;;-146.39;100.00;62182.44;6315661;20;3640976;-60
2023/01/29 11:02:51;;;;;;;;;67.33;48.00;;;;;-146.39;100.00;62182.44;6317487;20;3632650;-60
2023/01/29 11:05:47;;;;;;;;;75.33;58.33;;;;;-146.39;100.00;62182.44;6314957;20;2886805;-60
2023/01/29 11:08:23;;;;;;;;;78.00;56.33;;;;;-146.39;100.00;62182.44;6313893;20;3635703;-60
2023/01/29 11:11:12;;;;;;;;;64.67;48.67;;;;;-146.39;100.00;62182.44;6311419;20;3625251;-60
2023/01/29 11:13:58;;;;;;;;;61.33;47.00;;;;;-146.39;100.00;62182.44;6314943;20;2878504;-59
2023/01/29 11:16:42;;;;;;;;;63.67;50.67;;;;;-146.39;100.00;62182.44;6313476;20;3622293;-59
2023/01/29 11:19:13;;;;;;;;;77.67;55.00;;;;;-146.39;100.00;62182.44;6313833;20;2882802;-59
2023/01/29 11:22:00;;;;;;;;;71.00;50.33;;;;;-146.39;100.00;62182.44;6310856;20;3644003;-59
2023/01/29 11:24:29;;;;;;;;;58.00;43.50;;;;;-146.39;100.00;62182.44;6311169;20;2500312;-59
2023/01/29 11:27:00;;;;;;;;;67.67;50.00;;;;;-146.39;100.00;62182.44;6282421;20;3639878;-58
2023/01/29 11:30:00;;;;;;;;;54.00;43.50;;;;;-146.39;100.00;62182.44;6312913;20;2862822;-58
2023/01/29 11:32:34;;;;;;;;;58.67;44.00;;;;;-146.39;100.00;62182.44;6282645;20;2872244;-59
2023/01/29 11:35:14;;;;;;;;;45.00;40.00;;;;;-146.39;100.00;62182.44;6315964;20;2855477;-58
2023/01/29 11:37:46;;;;;;;;;72.67;53.67;;;;;-146.39;100.00;62182.44;6285541;20;2891153;-58
2023/01/29 11:40:18;;;;;;;;;57.00;44.00;;;;;-146.39;100.00;62182.44;6313854;20;3622352;-58
2023/01/29 11:42:51;;;;;;;;;56.33;44.00;;;;;-146.39;100.00;62182.44;6314086;20;2869161;-56
2023/01/29 11:45:28;;;;;;;;;58.00;41.50;;;;;-146.39;100.00;62182.44;6314159;20;2865994;-58
2023/01/29 11:47:57;;;;;;;;;54.00;38.00;;;;;-146.39;100.00;62182.44;6279768;20;2490044;-56
2023/01/29 11:50:30;;;;;;;;;60.50;46.00;;;;;-146.39;100.00;62182.44;6282297;20;2866932;-58
2023/01/29 11:53:02;;;;;;;;;54.00;44.00;;;;;-146.39;100.00;62182.44;6285828;20;2858792;-58
2023/01/29 11:55:35;;;;;;;;;55.00;43.50;;;;;-146.39;100.00;62182.44;6313080;20;2862803;-58
2023/01/29 11:58:29;;;;;;;;;62.50;46.50;;;;;-146.39;100.00;62182.44;6284225;20;2869066;-58
2023/01/29 12:00:59;;;;;;;;;56.00;44.50;;;;;-146.39;100.00;62182.44;6277098;20;2858731;-58